createdAt,value
2023-05-10T00:00:29.204Z,101214.50
2023-05-10T00:03:52.306Z,101212.50
2023-05-10T00:07:14.046Z,101206.84
2023-05-10T00:10:35.908Z,101215.28
2023-05-10T00:13:57.313Z,101211.19
2023-05-10T00:17:18.994Z,101203.72
2023-05-10T00:20:41.709Z,101208.63
2023-05-10T00:24:03.349Z,101208.34
2023-05-10T00:27:24.450Z,101201.69
2023-05-10T00:30:45.989Z,101201.97
2023-05-10T00:34:07.751Z,101192.66
2023-05-10T00:37:30.820Z,101197.56
2023-05-10T00:40:52.435Z,101193.47
2023-05-10T00:44:20.677Z,101189.66
2023-05-10T00:47:42.706Z,101187.38
2023-05-10T00:51:05.028Z,101185.25
2023-05-10T00:54:28.059Z,101183.94
2023-05-10T00:57:49.522Z,101177.06
2023-05-10T01:01:11.743Z,101167.63
2023-05-10T01:04:33.647Z,101173.09
2023-05-10T01:07:55.401Z,101168.72
2023-05-10T01:11:18.206Z,101153.81
2023-05-10T01:14:39.989Z,101159.69
2023-05-10T01:18:02.636Z,101165.44
2023-05-10T01:21:35.146Z,101167.78
2023-05-10T01:25:30.709Z,101168.31
2023-05-10T01:29:17.303Z,101154.06
2023-05-10T01:32:45.764Z,101155.59
2023-05-10T01:36:11.003Z,101153.41
2023-05-10T01:39:44.071Z,101148.72
2023-05-10T01:43:10.108Z,101137.44
2023-05-10T01:46:37.459Z,101139.66
2023-05-10T01:50:04.227Z,101132.91
2023-05-10T01:53:27.756Z,101134.25
2023-05-10T01:56:54.619Z,101139.28
2023-05-10T02:00:17.537Z,101133.72
2023-05-10T02:03:40.727Z,101136.53
2023-05-10T02:07:04.322Z,101141.97
2023-05-10T02:10:25.793Z,101138.72
2023-05-10T02:13:50.359Z,101137.41
2023-05-10T02:17:13.396Z,101127.25
2023-05-10T02:20:36.928Z,101129.47
2023-05-10T02:24:01.477Z,101115.91
2023-05-10T02:27:26.172Z,101118.00
2023-05-10T02:30:49.943Z,101118.09
2023-05-10T02:34:13.749Z,101112.19
2023-05-10T02:37:36.273Z,101112.31
2023-05-10T02:41:01.634Z,101116.91
2023-05-10T02:44:25.902Z,101119.84
2023-05-10T02:47:47.184Z,101119.38
2023-05-10T02:51:10.210Z,101112.72
2023-05-10T02:54:35.355Z,101113.09
2023-05-10T02:58:01.290Z,101105.38
2023-05-10T03:01:23.691Z,101110.91
2023-05-10T03:04:45.522Z,101105.13
2023-05-10T03:08:07.726Z,101106.09
2023-05-10T03:11:40.166Z,101105.16
2023-05-10T03:15:15.783Z,101108.31
2023-05-10T03:18:46.180Z,101107.59
2023-05-10T03:22:12.700Z,101102.38
2023-05-10T03:25:35.417Z,101103.47
2023-05-10T03:29:00.838Z,101098.50
2023-05-10T03:32:24.469Z,101103.84
2023-05-10T03:35:46.711Z,101107.47
2023-05-10T03:39:09.938Z,101094.16
2023-05-10T03:42:32.079Z,101107.72
2023-05-10T03:45:54.108Z,101096.34
2023-05-10T03:49:16.864Z,101094.66
2023-05-10T03:52:39.981Z,101101.66
2023-05-10T03:56:01.329Z,101100.81
2023-05-10T03:59:22.976Z,101100.94
2023-05-10T04:02:46.580Z,101092.81
2023-05-10T04:06:14.423Z,101098.88
2023-05-10T04:09:36.150Z,101099.72
2023-05-10T04:12:57.593Z,101097.69
2023-05-10T04:16:19.169Z,101092.34
2023-05-10T04:19:40.827Z,101092.81
2023-05-10T04:23:04.314Z,101097.91
2023-05-10T04:26:25.987Z,101088.94
2023-05-10T04:29:47.917Z,101086.28
2023-05-10T04:33:09.514Z,101083.38
2023-05-10T04:36:31.326Z,101086.75
2023-05-10T04:39:54.836Z,101094.38
2023-05-10T04:43:16.300Z,101085.41
2023-05-10T04:46:38.387Z,101088.91
2023-05-10T04:50:00.161Z,101088.56
2023-05-10T04:53:22.066Z,101085.88
2023-05-10T04:56:45.060Z,101094.47
2023-05-10T05:00:07.753Z,101081.03
2023-05-10T05:03:29.121Z,101079.19
2023-05-10T05:06:52.970Z,101089.22
2023-05-10T05:10:15.671Z,101080.72
2023-05-10T05:13:38.862Z,101075.59
2023-05-10T05:17:00.761Z,101088.81
2023-05-10T05:20:22.309Z,101089.16
2023-05-10T05:23:43.760Z,101074.88
2023-05-10T05:27:04.978Z,101070.72
2023-05-10T05:30:28.533Z,101077.22
2023-05-10T05:33:50.262Z,101078.28
2023-05-10T05:37:15.293Z,101074.09
2023-05-10T05:40:36.595Z,101084.41
2023-05-10T05:43:57.860Z,101081.06
2023-05-10T05:47:21.175Z,101075.09
2023-05-10T05:50:42.975Z,101072.50
2023-05-10T05:54:05.386Z,101080.78
2023-05-10T05:57:27.628Z,101071.19
2023-05-10T06:00:49.913Z,101076.59
2023-05-10T06:04:13.930Z,101074.94
2023-05-10T06:07:35.433Z,101077.41
2023-05-10T06:10:56.615Z,101082.75
2023-05-10T06:14:18.032Z,101066.06
2023-05-10T06:17:39.887Z,101064.97
2023-05-10T06:21:02.600Z,101072.19
2023-05-10T06:24:24.288Z,101069.50
2023-05-10T06:27:49.823Z,101075.72
2023-05-10T06:31:13.794Z,101074.91
2023-05-10T06:34:35.459Z,101069.41
2023-05-10T06:37:58.147Z,101066.75
2023-05-10T06:41:19.430Z,101062.22
2023-05-10T06:44:40.676Z,101055.91
2023-05-10T06:48:02.517Z,101049.41
2023-05-10T06:51:24.602Z,101054.94
2023-05-10T06:54:47.391Z,101059.69
2023-05-10T06:58:08.698Z,101047.81
2023-05-10T07:01:30.002Z,101050.47
2023-05-10T07:04:52.936Z,101047.78
2023-05-10T07:08:15.454Z,101037.00
2023-05-10T07:11:38.891Z,101036.97
2023-05-10T07:15:00.149Z,101030.72
2023-05-10T07:18:21.891Z,101035.91
2023-05-10T07:21:44.345Z,101036.00
2023-05-10T07:25:06.839Z,101024.06
2023-05-10T07:28:29.665Z,101035.88
2023-05-10T07:31:51.295Z,101040.50
2023-05-10T07:35:13.018Z,101028.41
2023-05-10T07:38:34.294Z,101037.06
2023-05-10T07:41:56.120Z,101027.97
2023-05-10T07:45:19.749Z,101023.34
2023-05-10T07:48:41.302Z,101019.41
2023-05-10T07:52:02.744Z,101024.38
2023-05-10T07:55:23.879Z,101022.41
2023-05-10T07:58:45.783Z,101026.53
2023-05-10T08:02:08.761Z,101024.41
2023-05-10T08:05:30.471Z,101009.41
2023-05-10T08:08:52.445Z,101019.84
2023-05-10T08:12:13.916Z,101021.25
2023-05-10T08:15:35.677Z,100997.75
2023-05-10T08:18:58.997Z,101001.50
2023-05-10T08:22:20.445Z,101001.53
2023-05-10T08:25:41.786Z,101008.28
2023-05-10T08:29:03.568Z,101001.06
2023-05-10T08:32:24.946Z,101023.59
2023-05-10T08:35:48.469Z,101009.34
2023-05-10T08:39:19.504Z,101023.66
2023-05-10T08:42:55.034Z,101013.75
2023-05-10T08:46:19.313Z,101007.22
2023-05-10T08:49:42.048Z,101005.38
2023-05-10T08:53:07.176Z,101010.41
2023-05-10T08:56:28.872Z,101011.25
2023-05-10T08:59:50.557Z,101007.53
2023-05-10T09:03:12.333Z,101011.06
2023-05-10T09:06:35.084Z,101010.03
2023-05-10T09:09:59.432Z,101007.16
2023-05-10T09:13:23.033Z,101008.81
2023-05-10T09:16:44.786Z,100999.19
2023-05-10T09:20:07.920Z,100990.22
2023-05-10T09:23:33.231Z,100988.22
2023-05-10T09:26:58.606Z,100994.38
2023-05-10T09:30:27.318Z,101003.66
2023-05-10T09:33:50.647Z,101003.94
2023-05-10T09:37:12.211Z,100991.44
2023-05-10T09:40:33.949Z,100989.41
2023-05-10T09:43:58.891Z,100999.50
2023-05-10T09:47:20.602Z,100995.91
2023-05-10T09:50:42.707Z,100998.22
2023-05-10T09:54:14.690Z,101005.41
2023-05-10T09:57:36.473Z,100996.41
2023-05-10T10:00:59.981Z,100997.22
2023-05-10T10:04:22.431Z,101009.63
2023-05-10T10:07:44.226Z,100997.09
2023-05-10T10:11:06.413Z,100997.22
2023-05-10T10:14:28.627Z,100995.47
2023-05-10T10:17:52.535Z,100981.25
2023-05-10T10:21:15.686Z,100989.47
2023-05-10T10:24:37.998Z,100990.59
2023-05-10T10:28:13.150Z,100981.75
2023-05-10T10:31:40.035Z,100981.03
2023-05-10T10:35:03.799Z,100978.59
2023-05-10T10:38:25.772Z,100987.63
2023-05-10T10:41:52.472Z,100982.34
2023-05-10T10:45:15.531Z,100979.75
2023-05-10T10:48:37.847Z,100980.66
2023-05-10T10:52:24.534Z,100984.31
2023-05-10T10:55:49.804Z,100973.41
2023-05-10T10:59:11.291Z,100991.41
2023-05-10T11:02:45.222Z,100979.34
2023-05-10T11:06:07.207Z,100978.38
2023-05-10T11:09:29.992Z,100989.81
2023-05-10T11:12:56.607Z,100991.13
2023-05-10T11:16:19.948Z,100969.56
2023-05-10T11:20:08.314Z,100972.59
2023-05-10T11:23:33.794Z,100971.56
2023-05-10T11:26:56.665Z,100965.63
2023-05-10T11:30:19.646Z,100971.66
2023-05-10T11:33:45.790Z,100972.31
2023-05-10T11:37:06.993Z,100976.78
2023-05-10T11:40:28.990Z,100968.91
2023-05-10T11:43:54.147Z,100984.94
2023-05-10T11:47:16.575Z,100979.78
2023-05-10T11:50:38.501Z,100970.00
2023-05-10T11:54:00.890Z,100969.44
2023-05-10T11:57:27.464Z,100979.03
2023-05-10T12:00:50.481Z,100974.19
2023-05-10T12:04:13.683Z,100977.59
2023-05-10T12:07:36.157Z,100974.69
2023-05-10T12:11:07.229Z,100981.97
2023-05-10T12:14:29.153Z,100975.41
2023-05-10T12:17:53.298Z,100978.09
2023-05-10T12:21:14.926Z,100983.31
2023-05-10T12:24:37.032Z,100980.66
2023-05-10T12:28:01.758Z,100974.28
2023-05-10T12:31:23.515Z,100966.84
2023-05-10T12:34:48.815Z,100969.59
2023-05-10T12:38:27.337Z,100973.41
2023-05-10T12:41:48.547Z,100982.63
2023-05-10T12:45:11.039Z,100988.06
2023-05-10T12:48:32.697Z,100985.59
2023-05-10T12:51:55.607Z,100993.97
2023-05-10T12:55:17.346Z,100983.44
2023-05-10T12:58:38.884Z,100980.94
2023-05-10T13:02:00.603Z,100996.41
2023-05-10T13:05:22.140Z,100990.19
2023-05-10T13:08:45.483Z,100970.41
2023-05-10T13:12:08.814Z,100980.63
2023-05-10T13:15:31.821Z,100981.03
2023-05-10T13:18:53.226Z,100978.94
2023-05-10T13:22:18.719Z,100983.56
2023-05-10T13:25:46.715Z,100981.94
2023-05-10T13:29:08.473Z,100979.03
2023-05-10T13:32:30.003Z,100974.03
2023-05-10T13:35:54.345Z,100971.53
2023-05-10T13:39:17.355Z,100968.88
2023-05-10T13:42:40.772Z,100973.06
2023-05-10T13:46:02.513Z,100961.63
2023-05-10T13:49:24.180Z,100945.97
2023-05-10T13:52:45.509Z,100955.78
2023-05-10T13:56:07.828Z,100969.75
2023-05-10T13:59:32.637Z,100958.72
2023-05-10T14:02:54.529Z,100949.56
2023-05-10T14:06:16.534Z,100954.22
2023-05-10T14:09:38.358Z,100961.09
2023-05-10T14:13:00.112Z,100965.28
2023-05-10T14:16:23.298Z,100967.81
2023-05-10T14:19:45.355Z,100961.34
2023-05-10T14:23:06.797Z,100966.78
2023-05-10T14:26:28.376Z,100957.56
2023-05-10T14:29:49.863Z,100962.81
2023-05-10T14:33:13.273Z,100955.28
2023-05-10T14:36:34.767Z,100948.41
2023-05-10T14:39:56.462Z,100949.03
2023-05-10T14:43:17.582Z,100953.59
2023-05-10T14:46:39.405Z,100948.97
2023-05-10T14:50:02.375Z,100957.69
2023-05-10T14:53:24.096Z,100952.81
2023-05-10T14:56:46.102Z,100950.16
2023-05-10T15:00:08.838Z,100943.63
2023-05-10T15:03:30.899Z,100938.56
2023-05-10T15:07:00.149Z,100941.34
2023-05-10T15:10:21.746Z,100943.50
2023-05-10T15:13:43.162Z,100940.56
2023-05-10T15:17:05.160Z,100942.88
2023-05-10T15:20:26.794Z,100938.56
2023-05-10T15:23:50.319Z,100944.56
2023-05-10T15:27:11.825Z,100951.00
2023-05-10T15:30:33.223Z,100946.72
2023-05-10T15:33:59.744Z,100940.19
2023-05-10T15:37:21.202Z,100951.47
2023-05-10T15:40:44.269Z,100950.00
2023-05-10T15:44:06.381Z,100947.34
2023-05-10T15:47:29.046Z,100944.69
2023-05-10T15:50:50.184Z,100938.59
2023-05-10T15:54:11.924Z,100951.81
2023-05-10T15:57:36.734Z,100947.16
2023-05-10T16:00:58.920Z,100942.38
2023-05-10T16:04:20.957Z,100950.34
2023-05-10T16:07:42.783Z,100954.72
2023-05-10T16:11:04.660Z,100954.16
2023-05-10T16:14:27.636Z,100952.75
2023-05-10T16:17:49.631Z,100955.91
2023-05-10T16:21:11.581Z,100948.03
2023-05-10T16:24:33.648Z,100948.84
2023-05-10T16:27:55.155Z,100956.13
2023-05-10T16:31:20.065Z,100949.78
2023-05-10T16:34:41.722Z,100962.19
2023-05-10T16:38:03.980Z,100963.78
2023-05-10T16:41:26.419Z,100969.25
2023-05-10T16:44:48.248Z,100966.69
2023-05-10T16:48:12.052Z,100969.66
2023-05-10T16:51:33.738Z,100965.94
2023-05-10T16:54:55.707Z,100978.66
2023-05-10T16:58:17.664Z,100975.13
2023-05-10T17:01:39.272Z,100981.09
2023-05-10T17:05:01.840Z,100978.66
2023-05-10T17:08:23.378Z,100986.00
2023-05-10T17:11:44.621Z,100991.94
2023-05-10T17:15:07.363Z,100989.44
2023-05-10T17:18:29.153Z,100998.19
2023-05-10T17:21:51.975Z,100997.06
2023-05-10T17:25:13.250Z,101004.53
2023-05-10T17:28:36.206Z,101008.63
2023-05-10T17:31:57.877Z,101001.38
2023-05-10T17:35:19.711Z,101008.16
2023-05-10T17:38:43.339Z,101011.63
2023-05-10T17:42:05.377Z,101020.31
2023-05-10T17:45:27.163Z,101023.72
2023-05-10T17:48:48.801Z,101024.78
2023-05-10T17:52:10.129Z,101026.50
2023-05-10T17:55:33.423Z,101030.50
2023-05-10T17:58:54.827Z,101036.16
2023-05-10T18:02:16.075Z,101036.81
2023-05-10T18:05:39.704Z,101039.53
2023-05-10T18:09:01.369Z,101041.63
2023-05-10T18:12:24.223Z,101039.50
2023-05-10T18:15:46.133Z,101048.25
2023-05-10T18:19:07.780Z,101047.19
2023-05-10T18:22:29.417Z,101056.59
2023-05-10T18:25:50.932Z,101062.41
2023-05-10T18:29:13.987Z,101059.03
2023-05-10T18:32:35.417Z,101055.47
2023-05-10T18:35:56.844Z,101060.22
2023-05-10T18:39:18.998Z,101064.97
2023-05-10T18:42:41.666Z,101065.97
2023-05-10T18:46:04.818Z,101077.63
2023-05-10T18:49:27.714Z,101079.66
2023-05-10T18:52:49.286Z,101090.47
2023-05-10T18:56:10.856Z,101097.72
2023-05-10T18:59:32.348Z,101098.53
2023-05-10T19:02:55.137Z,101112.03
2023-05-10T19:06:17.311Z,101122.78
2023-05-10T19:09:38.996Z,101128.75
2023-05-10T19:13:00.384Z,101133.81
2023-05-10T19:16:24.043Z,101134.13
2023-05-10T19:19:48.383Z,101142.41
2023-05-10T19:23:10.524Z,101142.97
2023-05-10T19:26:32.224Z,101148.50
2023-05-10T19:29:55.470Z,101156.94
2023-05-10T19:33:18.110Z,101154.53
2023-05-10T19:36:41.342Z,101143.00
2023-05-10T19:40:02.839Z,101146.25
2023-05-10T19:43:24.247Z,101145.13
2023-05-10T19:46:45.519Z,101145.88
2023-05-10T19:50:08.213Z,101150.63
2023-05-10T19:53:32.242Z,101151.00
2023-05-10T19:56:53.887Z,101156.81
2023-05-10T20:00:16.156Z,101158.13
2023-05-10T20:03:38.331Z,101164.19
2023-05-10T20:07:01.305Z,101161.94
2023-05-10T20:10:26.902Z,101164.09
2023-05-10T20:13:48.863Z,101171.25
2023-05-10T20:17:10.193Z,101172.53
2023-05-10T20:20:32.020Z,101168.25
2023-05-10T20:23:53.659Z,101168.81
2023-05-10T20:27:16.531Z,101172.13
2023-05-10T20:30:37.969Z,101172.75
2023-05-10T20:33:59.982Z,101170.63
2023-05-10T20:37:21.211Z,101172.06
2023-05-10T20:40:43.006Z,101182.25
2023-05-10T20:44:06.919Z,101168.47
2023-05-10T20:47:28.657Z,101178.31
2023-05-10T20:50:51.114Z,101170.78
2023-05-10T20:54:12.841Z,101180.09
2023-05-10T20:57:34.468Z,101179.47
2023-05-10T21:00:57.112Z,101173.44
2023-05-10T21:04:18.814Z,101173.63
2023-05-10T21:07:41.052Z,101171.09
2023-05-10T21:11:05.712Z,101176.69
2023-05-10T21:14:27.053Z,101175.34
2023-05-10T21:17:49.800Z,101181.22
2023-05-10T21:21:11.532Z,101180.91
2023-05-10T21:24:33.341Z,101182.41
2023-05-10T21:27:54.767Z,101179.38
2023-05-10T21:31:16.867Z,101186.72
2023-05-10T21:34:39.810Z,101182.69
2023-05-10T21:38:01.639Z,101188.19
2023-05-10T21:41:23.491Z,101191.88
2023-05-10T21:44:44.932Z,101194.88
2023-05-10T21:48:06.676Z,101197.84
2023-05-10T21:51:30.059Z,101200.28
2023-05-10T21:54:52.435Z,101201.22
2023-05-10T21:58:13.524Z,101202.19
2023-05-10T22:01:35.357Z,101204.16
2023-05-10T22:04:57.078Z,101203.41
2023-05-10T22:08:19.808Z,101208.19
2023-05-10T22:11:41.122Z,101207.97
2023-05-10T22:18:27.397Z,101209.59
2023-05-10T22:21:49.129Z,101211.91
2023-05-10T22:25:12.353Z,101201.09
2023-05-10T22:28:33.680Z,101217.78
2023-05-10T22:31:54.891Z,101215.03
2023-05-10T22:35:16.224Z,101214.34
2023-05-10T22:38:37.498Z,101216.66
2023-05-10T22:42:00.049Z,101217.78
2023-05-10T22:45:21.886Z,101220.94
2023-05-10T22:48:44.292Z,101224.78
2023-05-10T22:52:05.582Z,101227.94
2023-05-10T22:55:27.426Z,101227.50
2023-05-10T22:58:50.261Z,101236.88
2023-05-10T23:02:14.091Z,101234.97
2023-05-10T23:05:35.580Z,101237.41
2023-05-10T23:08:56.814Z,101240.69
2023-05-10T23:12:18.134Z,101249.34
2023-05-10T23:15:41.302Z,101247.22
2023-05-10T23:19:02.949Z,101246.13
2023-05-10T23:22:24.223Z,101242.53
2023-05-10T23:25:45.968Z,101248.91
2023-05-10T23:29:07.300Z,101255.16
2023-05-10T23:32:30.412Z,101249.63
2023-05-10T23:35:51.806Z,101254.59
2023-05-10T23:39:13.470Z,101256.03
2023-05-10T23:42:34.798Z,101261.94
2023-05-10T23:45:56.851Z,101258.72
2023-05-10T23:49:20.045Z,101260.00
2023-05-10T23:52:41.310Z,101249.59
2023-05-10T23:56:03.428Z,101253.38
2023-05-10T23:59:24.798Z,101256.19
